Time;durP1;ratioP1;P1;durP2;ratioP2;P2;SDS_P1;SDS_P2;PMS_P1;PMS_P2;Temp;Humidity;BMP_temperature;BMP_pressure;BME280_temperature;BME280_humidity;BME280_pressure;Samples;Min_cycle;Max_cycle;Signal;HPM_P1;HPM_P2
2021/04/25 00:01:32;;;;;;;47.43;24.17;;;;;;;;;;4403280;32;20311;-59
2021/04/25 00:03:57;;;;;;;31.10;18.67;;;;;;;;;;4409635;32;20273;-60
2021/04/25 00:06:23;;;;;;;26.73;15.00;;;;;;;;;;4404114;32;20292;-58
2021/04/25 00:08:48;;;;;;;28.43;15.40;;;;;;;;;;4404487;32;20205;-58
2021/04/25 00:11:14;;;;;;;25.53;15.87;;;;;;;;;;4403925;32;20213;-58
2021/04/25 00:13:43;;;;;;;32.07;18.27;;;;;;;;;;4408482;32;20762;-59
2021/04/25 00:16:08;;;;;;;39.47;19.93;;;;;;;;;;4393685;32;20343;-59
2021/04/25 00:18:35;;;;;;;35.03;19.17;;;;;;;;;;4407382;32;20280;-61
2021/04/25 00:21:00;;;;;;;37.67;17.73;;;;;;;;;;4411194;32;20288;-60
2021/04/25 00:23:26;;;;;;;30.90;18.37;;;;;;;;;;4409795;32;20315;-60
2021/04/25 00:25:51;;;;;;;40.80;23.67;;;;;;;;;;4410867;32;20245;-59
2021/04/25 00:28:17;;;;;;;44.10;23.50;;;;;;;;;;4395505;32;20376;-59
2021/04/25 00:30:43;;;;;;;47.93;22.20;;;;;;;;;;4417366;32;20225;-59
2021/04/25 00:33:08;;;;;;;39.47;20.57;;;;;;;;;;4408858;32;20343;-60
2021/04/25 00:35:35;;;;;;;40.60;19.70;;;;;;;;;;4417526;32;20296;-59
2021/04/25 00:38:01;;;;;;;27.90;16.03;;;;;;;;;;4397679;32;20221;-60
2021/04/25 00:40:27;;;;;;;23.23;14.33;;;;;;;;;;4402454;32;20265;-60
2021/04/25 00:42:53;;;;;;;23.60;14.20;;;;;;;;;;4397117;32;20278;-60
2021/04/25 00:45:19;;;;;;;23.10;13.63;;;;;;;;;;4402620;32;20438;-59
2021/04/25 00:47:47;;;;;;;19.87;12.87;;;;;;;;;;4406402;32;20654;-59
2021/04/25 00:50:15;;;;;;;24.13;12.47;;;;;;;;;;4410703;32;20248;-60
2021/04/25 00:52:43;;;;;;;20.53;11.20;;;;;;;;;;4394656;32;20633;-59
2021/04/25 00:55:10;;;;;;;20.97;11.20;;;;;;;;;;4402747;32;20634;-59
2021/04/25 00:57:36;;;;;;;18.47;9.40;;;;;;;;;;4406118;32;20711;-59
2021/04/25 01:00:04;;;;;;;14.53;9.23;;;;;;;;;;4416421;32;20319;-60
2021/04/25 01:02:30;;;;;;;20.50;10.47;;;;;;;;;;4406180;32;20350;-59
2021/04/25 01:04:55;;;;;;;13.70;8.90;;;;;;;;;;4415636;32;20292;-60
2021/04/25 01:07:21;;;;;;;17.40;10.40;;;;;;;;;;4411091;32;20308;-62
2021/04/25 01:09:46;;;;;;;15.23;9.33;;;;;;;;;;4414479;32;20355;-60
2021/04/25 01:12:12;;;;;;;16.93;9.30;;;;;;;;;;4393804;32;20302;-59
2021/04/25 01:14:37;;;;;;;11.83;7.67;;;;;;;;;;4406886;32;20288;-60
2021/04/25 01:17:03;;;;;;;15.33;8.37;;;;;;;;;;4410196;32;20238;-59
2021/04/25 01:19:28;;;;;;;11.23;6.00;;;;;;;;;;4412578;32;20264;-59
2021/04/25 01:21:54;;;;;;;20.03;9.37;;;;;;;;;;4411285;32;20346;-60
2021/04/25 01:24:19;;;;;;;15.67;7.97;;;;;;;;;;4394113;32;20346;-61
2021/04/25 01:26:45;;;;;;;14.53;7.60;;;;;;;;;;4406173;32;20340;-59
2021/04/25 01:29:11;;;;;;;13.63;7.30;;;;;;;;;;4404150;32;20333;-59
2021/04/25 01:31:37;;;;;;;12.93;6.70;;;;;;;;;;4397153;32;20232;-60
2021/04/25 01:34:02;;;;;;;13.13;7.07;;;;;;;;;;4396876;32;20292;-60
2021/04/25 01:36:28;;;;;;;14.40;6.83;;;;;;;;;;4414661;32;20283;-59
2021/04/25 01:38:53;;;;;;;11.97;6.80;;;;;;;;;;4410237;32;20702;-59
2021/04/25 01:41:19;;;;;;;14.30;6.53;;;;;;;;;;4416032;32;20280;-59
2021/04/25 01:43:47;;;;;;;15.50;7.93;;;;;;;;;;4396743;32;20288;-58
2021/04/25 01:46:16;;;;;;;12.67;6.67;;;;;;;;;;4396398;32;20209;-59
2021/04/25 01:48:42;;;;;;;16.07;9.43;;;;;;;;;;4408697;32;20230;-59
2021/04/25 01:51:08;;;;;;;16.60;7.87;;;;;;;;;;4405361;32;20285;-59
2021/04/25 01:53:34;;;;;;;21.10;12.03;;;;;;;;;;4412665;32;20231;-59
2021/04/25 01:55:59;;;;;;;24.87;13.90;;;;;;;;;;4418886;32;20295;-58
2021/04/25 01:58:25;;;;;;;33.43;16.27;;;;;;;;;;4411975;32;20264;-58
2021/04/25 02:00:51;;;;;;;28.40;15.57;;;;;;;;;;4419022;32;20310;-58
2021/04/25 02:03:16;;;;;;;40.90;18.93;;;;;;;;;;4411300;32;20231;-58
2021/04/25 02:05:43;;;;;;;31.77;18.77;;;;;;;;;;4404638;32;20267;-59
2021/04/25 02:08:09;;;;;;;28.40;16.90;;;;;;;;;;4412877;32;20216;-58
2021/04/25 02:10:36;;;;;;;30.57;14.03;;;;;;;;;;4404836;32;20325;-59
2021/04/25 02:13:03;;;;;;;27.83;14.73;;;;;;;;;;4399122;32;20296;-60
2021/04/25 02:15:29;;;;;;;29.23;15.27;;;;;;;;;;4398162;32;20709;-59
2021/04/25 02:17:54;;;;;;;30.03;14.53;;;;;;;;;;4405542;32;20232;-59
2021/04/25 02:20:22;;;;;;;22.87;13.83;;;;;;;;;;4419726;32;20320;-59
2021/04/25 02:22:48;;;;;;;28.77;17.30;;;;;;;;;;4414390;32;20622;-60
2021/04/25 02:25:16;;;;;;;27.83;15.67;;;;;;;;;;4404399;32;20306;-61
2021/04/25 02:27:42;;;;;;;25.40;15.10;;;;;;;;;;4408208;32;20292;-60
2021/04/25 02:30:14;;;;;;;31.73;14.93;;;;;;;;;;4418902;32;20617;-61
2021/04/25 02:32:39;;;;;;;34.53;18.40;;;;;;;;;;4405501;32;20214;-60
2021/04/25 02:35:07;;;;;;;35.00;19.07;;;;;;;;;;4418562;32;20287;-60
2021/04/25 02:37:33;;;;;;;38.97;22.07;;;;;;;;;;4400714;32;20259;-60
2021/04/25 02:39:58;;;;;;;40.63;24.00;;;;;;;;;;4391883;32;20292;-60
2021/04/25 02:42:24;;;;;;;46.80;27.30;;;;;;;;;;4390905;32;20229;-60
2021/04/25 02:44:49;;;;;;;68.53;36.70;;;;;;;;;;4416710;32;20288;-60
2021/04/25 02:47:15;;;;;;;51.30;29.00;;;;;;;;;;4413358;32;20558;-60
2021/04/25 02:49:41;;;;;;;44.90;25.63;;;;;;;;;;4412705;32;20700;-61
2021/04/25 02:52:06;;;;;;;40.33;23.57;;;;;;;;;;4407587;32;20214;-60
2021/04/25 02:54:33;;;;;;;44.23;26.07;;;;;;;;;;4400878;32;20228;-60
2021/04/25 02:56:59;;;;;;;46.63;22.57;;;;;;;;;;4415064;32;20225;-60
2021/04/25 02:59:24;;;;;;;39.70;20.10;;;;;;;;;;4400090;32;20315;-60
2021/04/25 03:01:50;;;;;;;39.23;21.57;;;;;;;;;;4411764;32;20738;-60
2021/04/25 03:04:15;;;;;;;36.07;19.53;;;;;;;;;;4403409;32;20269;-60
2021/04/25 03:06:41;;;;;;;32.00;19.87;;;;;;;;;;4407472;32;20309;-58
2021/04/25 03:09:06;;;;;;;30.43;18.30;;;;;;;;;;4412205;32;20281;-59
2021/04/25 03:11:32;;;;;;;34.23;19.97;;;;;;;;;;4413520;32;20251;-58
2021/04/25 03:13:57;;;;;;;31.80;17.97;;;;;;;;;;4393716;32;20292;-59
2021/04/25 03:16:24;;;;;;;30.80;19.00;;;;;;;;;;4411890;32;20340;-59
2021/04/25 03:18:49;;;;;;;28.80;18.47;;;;;;;;;;4408781;32;20422;-61
2021/04/25 03:21:15;;;;;;;29.60;17.83;;;;;;;;;;4415930;32;20224;-63
2021/04/25 03:23:40;;;;;;;29.30;17.70;;;;;;;;;;4395192;32;20311;-61
2021/04/25 03:26:06;;;;;;;26.47;17.07;;;;;;;;;;4416724;32;20217;-61
2021/04/25 03:28:31;;;;;;;25.70;16.50;;;;;;;;;;4411282;32;20348;-61
2021/04/25 03:30:57;;;;;;;27.80;16.77;;;;;;;;;;4413838;32;20217;-61
2021/04/25 03:33:22;;;;;;;28.93;15.27;;;;;;;;;;4407648;32;20201;-61
2021/04/25 03:35:49;;;;;;;29.47;15.13;;;;;;;;;;4403414;32;20232;-61
2021/04/25 03:38:15;;;;;;;20.90;13.17;;;;;;;;;;4410984;32;20288;-60
2021/04/25 03:40:41;;;;;;;24.07;12.53;;;;;;;;;;4403535;32;20225;-58
2021/04/25 03:43:07;;;;;;;20.37;12.87;;;;;;;;;;4411378;32;20345;-58
2021/04/25 03:45:32;;;;;;;18.70;11.10;;;;;;;;;;4403328;32;20340;-58
2021/04/25 03:47:58;;;;;;;15.77;10.67;;;;;;;;;;4407957;32;20293;-59
2021/04/25 03:50:24;;;;;;;18.93;12.23;;;;;;;;;;4410911;32;20463;-59
2021/04/25 03:52:50;;;;;;;24.00;15.60;;;;;;;;;;4400614;32;20340;-59
2021/04/25 03:55:19;;;;;;;26.80;14.33;;;;;;;;;;3997043;32;20243;-59
2021/04/25 03:57:45;;;;;;;20.73;11.87;;;;;;;;;;4240557;33;20446;-60
2021/04/25 04:00:14;;;;;;;22.03;13.53;;;;;;;;;;4271104;33;20708;-60
2021/04/25 04:02:39;;;;;;;23.87;12.47;;;;;;;;;;4264710;33;20266;-60
2021/04/25 04:05:06;;;;;;;20.87;12.33;;;;;;;;;;4271009;33;20296;-57
2021/04/25 04:07:31;;;;;;;23.90;13.03;;;;;;;;;;4275123;33;20326;-59
2021/04/25 04:09:57;;;;;;;12.80;9.67;;;;;;;;;;4272104;33;20339;-60
2021/04/25 04:12:23;;;;;;;14.33;9.53;;;;;;;;;;4284717;33;20228;-60
2021/04/25 04:14:48;;;;;;;21.37;10.43;;;;;;;;;;4277479;33;20298;-59
2021/04/25 04:17:14;;;;;;;22.00;12.70;;;;;;;;;;4276496;33;20213;-62
2021/04/25 04:19:40;;;;;;;46.03;28.53;;;;;;;;;;4281531;33;20766;-58
2021/04/25 04:22:06;;;;;;;45.60;31.03;;;;;;;;;;4279365;33;20315;-58
2021/04/25 04:24:31;;;;;;;27.70;18.47;;;;;;;;;;4285399;33;20302;-58
2021/04/25 04:26:56;;;;;;;24.77;12.57;;;;;;;;;;4273224;33;20278;-58
2021/04/25 04:29:23;;;;;;;15.00;9.90;;;;;;;;;;4275516;33;20370;-59
2021/04/25 04:31:49;;;;;;;12.93;9.27;;;;;;;;;;4259023;33;20597;-59
2021/04/25 04:34:14;;;;;;;13.27;8.23;;;;;;;;;;4276126;33;20283;-62
2021/04/25 04:36:40;;;;;;;14.23;8.43;;;;;;;;;;4271989;33;20314;-59
2021/04/25 04:39:06;;;;;;;16.03;10.73;;;;;;;;;;4276392;33;20335;-57
2021/04/25 04:41:31;;;;;;;20.80;13.23;;;;;;;;;;4272984;33;20282;-57
2021/04/25 04:43:58;;;;;;;28.67;16.60;;;;;;;;;;4278271;33;20325;-57
2021/04/25 04:46:24;;;;;;;23.00;16.23;;;;;;;;;;4281919;33;20258;-57
2021/04/25 04:48:49;;;;;;;31.40;18.13;;;;;;;;;;4276529;33;20797;-58
2021/04/25 04:51:15;;;;;;;20.07;13.00;;;;;;;;;;4272644;33;20233;-58
2021/04/25 04:53:40;;;;;;;20.67;11.80;;;;;;;;;;4275376;33;20645;-59
2021/04/25 04:56:06;;;;;;;22.57;11.33;;;;;;;;;;4271208;33;20284;-60
2021/04/25 04:58:31;;;;;;;19.63;11.53;;;;;;;;;;4276824;33;20489;-60
2021/04/25 05:00:57;;;;;;;16.70;11.27;;;;;;;;;;4270457;33;20303;-59
2021/04/25 05:03:22;;;;;;;18.53;11.13;;;;;;;;;;4274927;33;20246;-60
2021/04/25 05:05:48;;;;;;;18.00;12.23;;;;;;;;;;4283819;33;20306;-60
2021/04/25 05:08:14;;;;;;;20.40;12.23;;;;;;;;;;4277810;33;20843;-59
2021/04/25 05:10:39;;;;;;;23.70;14.60;;;;;;;;;;4270241;33;20215;-60
2021/04/25 05:13:09;;;;;;;50.70;28.23;;;;;;;;;;4278012;33;20268;-61
2021/04/25 05:15:35;;;;;;;35.67;23.23;;;;;;;;;;4279181;33;20558;-59
2021/04/25 05:18:01;;;;;;;35.57;23.03;;;;;;;;;;4278612;33;20287;-59
2021/04/25 05:20:28;;;;;;;37.00;17.07;;;;;;;;;;4284656;33;20255;-59
2021/04/25 05:22:57;;;;;;;19.17;12.23;;;;;;;;;;4280561;33;20745;-59
2021/04/25 05:25:23;;;;;;;19.63;12.83;;;;;;;;;;4272638;33;20345;-59
2021/04/25 05:27:48;;;;;;;22.60;14.20;;;;;;;;;;4280767;33;20216;-59
2021/04/25 05:30:15;;;;;;;23.47;13.40;;;;;;;;;;4271344;33;20311;-61
2021/04/25 05:32:41;;;;;;;24.10;14.97;;;;;;;;;;4279816;33;20286;-60
2021/04/25 05:35:07;;;;;;;24.47;14.93;;;;;;;;;;4260442;33;20784;-61
2021/04/25 05:37:32;;;;;;;26.73;15.00;;;;;;;;;;4279002;33;20258;-61
2021/04/25 05:39:58;;;;;;;23.07;13.70;;;;;;;;;;4274211;33;20399;-61
2021/04/25 05:42:24;;;;;;;21.37;13.27;;;;;;;;;;4280124;33;20408;-60
2021/04/25 05:44:50;;;;;;;17.63;13.20;;;;;;;;;;4275162;33;20280;-61
2021/04/25 05:47:16;;;;;;;19.67;12.50;;;;;;;;;;4277077;33;20617;-61
2021/04/25 05:49:42;;;;;;;20.70;13.57;;;;;;;;;;4275614;33;20354;-63
2021/04/25 05:52:07;;;;;;;24.83;13.93;;;;;;;;;;4276493;33;20236;-61
2021/04/25 05:54:33;;;;;;;34.03;17.40;;;;;;;;;;4282600;33;20267;-61
2021/04/25 05:56:58;;;;;;;26.87;18.27;;;;;;;;;;4281031;33;20291;-62
2021/04/25 05:59:24;;;;;;;21.07;13.27;;;;;;;;;;4262047;33;20311;-62
2021/04/25 06:01:49;;;;;;;20.10;10.03;;;;;;;;;;4271825;33;20341;-61
2021/04/25 06:04:15;;;;;;;23.23;12.13;;;;;;;;;;4264267;33;20311;-58
2021/04/25 06:06:40;;;;;;;22.63;12.93;;;;;;;;;;4257260;33;20551;-59
2021/04/25 06:09:06;;;;;;;24.73;14.47;;;;;;;;;;4262114;33;20321;-59
2021/04/25 06:11:32;;;;;;;35.90;20.73;;;;;;;;;;4257980;33;20632;-59
2021/04/25 06:13:57;;;;;;;34.63;22.73;;;;;;;;;;4264097;33;20299;-60
2021/04/25 06:16:23;;;;;;;42.33;24.67;;;;;;;;;;4264226;33;20712;-58
2021/04/25 06:18:49;;;;;;;42.90;22.70;;;;;;;;;;4268433;33;20292;-60
2021/04/25 06:21:14;;;;;;;39.60;20.87;;;;;;;;;;4265240;33;20237;-59
2021/04/25 06:23:40;;;;;;;39.87;19.13;;;;;;;;;;4266610;33;20365;-59
2021/04/25 06:26:05;;;;;;;35.20;19.37;;;;;;;;;;4262691;33;20283;-60
2021/04/25 06:28:31;;;;;;;39.57;17.03;;;;;;;;;;4275606;33;20367;-60
2021/04/25 06:30:57;;;;;;;35.97;17.40;;;;;;;;;;4259704;33;20223;-59
2021/04/25 06:33:23;;;;;;;27.50;15.97;;;;;;;;;;4261943;33;20311;-59
2021/04/25 06:35:49;;;;;;;26.73;15.83;;;;;;;;;;4270652;33;20217;-59
2021/04/25 06:38:15;;;;;;;32.27;15.77;;;;;;;;;;4259920;33;20284;-59
2021/04/25 06:40:41;;;;;;;27.97;14.87;;;;;;;;;;4265083;33;20224;-59
2021/04/25 06:43:07;;;;;;;25.10;15.30;;;;;;;;;;4256996;33;20594;-59
2021/04/25 06:45:32;;;;;;;25.77;14.27;;;;;;;;;;4272216;33;20259;-60
2021/04/25 06:47:58;;;;;;;26.63;12.97;;;;;;;;;;4246686;33;20233;-59
2021/04/25 06:50:24;;;;;;;23.20;14.33;;;;;;;;;;4271793;33;20763;-58
2021/04/25 06:52:50;;;;;;;23.77;14.33;;;;;;;;;;4261682;33;20296;-59
2021/04/25 06:55:19;;;;;;;24.57;13.80;;;;;;;;;;4269955;33;20268;-58
2021/04/25 06:57:46;;;;;;;23.63;13.10;;;;;;;;;;4252964;33;20262;-58
2021/04/25 07:00:13;;;;;;;18.27;11.97;;;;;;;;;;4275819;33;20280;-59
2021/04/25 07:02:39;;;;;;;21.43;10.40;;;;;;;;;;4272575;33;20339;-59
2021/04/25 07:05:06;;;;;;;23.90;10.43;;;;;;;;;;4282059;33;20395;-58
2021/04/25 07:07:32;;;;;;;25.67;10.47;;;;;;;;;;4273029;33;20227;-58
2021/04/25 07:09:58;;;;;;;23.80;9.90;;;;;;;;;;4282215;33;20818;-58
2021/04/25 07:12:25;;;;;;;16.80;8.40;;;;;;;;;;4276215;33;20228;-58
2021/04/25 07:14:50;;;;;;;20.67;9.97;;;;;;;;;;4278701;33;20371;-58
2021/04/25 07:17:16;;;;;;;15.77;9.20;;;;;;;;;;4279999;33;20658;-58
2021/04/25 07:19:41;;;;;;;15.23;8.93;;;;;;;;;;4286184;33;20346;-58
2021/04/25 07:22:07;;;;;;;19.50;12.50;;;;;;;;;;4280441;33;20243;-57
2021/04/25 07:24:32;;;;;;;17.47;9.40;;;;;;;;;;4277204;33;20302;-59
2021/04/25 07:26:58;;;;;;;11.50;7.57;;;;;;;;;;4271878;33;20576;-58
2021/04/25 07:29:24;;;;;;;14.60;8.93;;;;;;;;;;4276119;33;20759;-60
2021/04/25 07:31:50;;;;;;;22.07;9.63;;;;;;;;;;4278134;33;20590;-59
2021/04/25 07:34:16;;;;;;;22.93;10.17;;;;;;;;;;4268253;33;20386;-59
2021/04/25 07:36:41;;;;;;;25.47;13.90;;;;;;;;;;4282494;33;20283;-60
2021/04/25 07:39:07;;;;;;;15.13;11.07;;;;;;;;;;4273744;33;20681;-57
2021/04/25 07:41:33;;;;;;;23.03;9.10;;;;;;;;;;4271838;33;20224;-57
2021/04/25 07:43:58;;;;;;;8.47;4.63;;;;;;;;;;4271148;33;20743;-59
2021/04/25 07:46:24;;;;;;;17.37;5.70;;;;;;;;;;4270714;33;20220;-58
2021/04/25 07:48:50;;;;;;;11.93;7.50;;;;;;;;;;4270653;33;20298;-56
2021/04/25 07:51:16;;;;;;;15.37;9.33;;;;;;;;;;4274034;33;20377;-58
2021/04/25 07:53:41;;;;;;;14.93;7.80;;;;;;;;;;4269661;33;20319;-58
2021/04/25 07:56:07;;;;;;;13.33;6.87;;;;;;;;;;4269975;33;20594;-58
2021/04/25 07:58:33;;;;;;;8.33;5.10;;;;;;;;;;4188356;33;20241;-58
2021/04/25 08:00:59;;;;;;;6.37;3.40;;;;;;;;;;3839574;33;20433;-58
2021/04/25 08:03:27;;;;;;;7.13;4.40;;;;;;;;;;4208687;33;20260;-60
2021/04/25 08:05:52;;;;;;;13.00;5.03;;;;;;;;;;4270421;33;20255;-59
2021/04/25 08:08:18;;;;;;;11.87;3.90;;;;;;;;;;4269410;33;20689;-57
2021/04/25 08:10:45;;;;;;;10.63;5.13;;;;;;;;;;4270577;33;20250;-58
2021/04/25 08:13:11;;;;;;;5.73;4.03;;;;;;;;;;4255574;33;20396;-57
2021/04/25 08:15:36;;;;;;;10.60;3.37;;;;;;;;;;4255909;33;20295;-60
2021/04/25 08:18:02;;;;;;;8.77;4.13;;;;;;;;;;4265364;33;20312;-58
2021/04/25 08:20:28;;;;;;;8.60;4.33;;;;;;;;;;4257843;33;20867;-57
2021/04/25 08:22:53;;;;;;;12.37;6.03;;;;;;;;;;4269787;33;20279;-58
2021/04/25 08:25:19;;;;;;;13.63;4.73;;;;;;;;;;4269814;33;20697;-59
2021/04/25 08:27:45;;;;;;;8.17;4.47;;;;;;;;;;4269083;33;20208;-58
2021/04/25 08:30:11;;;;;;;9.37;4.23;;;;;;;;;;4269838;33;20303;-57
2021/04/25 08:32:36;;;;;;;7.50;4.37;;;;;;;;;;4275100;33;20282;-57
2021/04/25 08:35:04;;;;;;;6.87;3.87;;;;;;;;;;4270332;33;20321;-58
2021/04/25 08:37:29;;;;;;;10.23;5.80;;;;;;;;;;4270023;33;20569;-56
2021/04/25 08:39:55;;;;;;;5.97;3.50;;;;;;;;;;4269913;33;20307;-57
2021/04/25 08:42:20;;;;;;;7.03;3.63;;;;;;;;;;4270013;33;20673;-57
2021/04/25 08:44:46;;;;;;;5.53;3.80;;;;;;;;;;4270546;33;20804;-58
2021/04/25 08:47:13;;;;;;;7.47;3.63;;;;;;;;;;4257032;33;20266;-56
2021/04/25 08:49:41;;;;;;;10.10;4.33;;;;;;;;;;4270458;33;20697;-58
2021/04/25 08:52:07;;;;;;;7.13;4.00;;;;;;;;;;4269406;33;20220;-58
2021/04/25 08:54:33;;;;;;;5.73;4.23;;;;;;;;;;4270015;33;20617;-58
2021/04/25 08:56:59;;;;;;;8.83;4.00;;;;;;;;;;4270488;33;20227;-58
2021/04/25 08:59:24;;;;;;;9.17;4.53;;;;;;;;;;4270093;33;20303;-60
2021/04/25 09:01:50;;;;;;;4.90;2.80;;;;;;;;;;4269555;33;20307;-59
2021/04/25 09:04:16;;;;;;;8.20;4.77;;;;;;;;;;4256798;33;20855;-58
2021/04/25 09:07:13;;;;;;;8.70;3.10;;;;;;;;;;4270739;33;20295;-57
2021/04/25 09:09:45;;;;;;;6.43;2.93;;;;;;;;;;4270179;33;20224;-59
2021/04/25 09:12:12;;;;;;;5.27;3.23;;;;;;;;;;4270232;33;20333;-59
2021/04/25 09:14:40;;;;;;;9.40;4.93;;;;;;;;;;4268794;33;20694;-59
2021/04/25 09:17:06;;;;;;;7.40;3.70;;;;;;;;;;4272142;33;20236;-59
2021/04/25 09:19:51;;;;;;;6.77;3.70;;;;;;;;;;4273960;33;20748;-59
2021/04/25 09:22:18;;;;;;;8.43;3.33;;;;;;;;;;4268580;33;20256;-59
2021/04/25 09:24:44;;;;;;;13.43;4.60;;;;;;;;;;4280606;33;20282;-58
2021/04/25 09:27:10;;;;;;;4.28;2.83;;;;;;;;;;4290033;33;20390;-59
2021/04/25 09:29:50;;;;;;;9.33;3.50;;;;;;;;;;4275233;33;20216;-59
2021/04/25 09:32:29;;;;;;;4.78;2.97;;;;;;;;;;4277070;33;20224;-60
2021/04/25 09:35:16;;;;;;;5.15;3.17;;;;;;;;;;4281019;33;20665;-59
2021/04/25 09:37:45;;;;;;;7.00;3.12;;;;;;;;;;4278675;33;20266;-59
2021/04/25 09:40:16;;;;;;;11.07;4.37;;;;;;;;;;4271491;33;20346;-61
2021/04/25 09:43:03;;;;;;;8.80;3.40;;;;;;;;;;4278262;33;20314;-59
2021/04/25 09:45:31;;;;;;;8.48;3.92;;;;;;;;;;4276716;33;20310;-58
2021/04/25 09:47:58;;;;;;;7.37;2.80;;;;;;;;;;4273939;33;20302;-59
2021/04/25 09:50:25;;;;;;;12.45;8.52;;;;;;;;;;4273596;33;20220;-59
2021/04/25 09:52:51;;;;;;;17.80;4.15;;;;;;;;;;4274095;33;20334;-58
2021/04/25 09:55:25;;;;;;;6.28;3.90;;;;;;;;;;4271859;33;20290;-59
2021/04/25 09:57:53;;;;;;;9.50;3.22;;;;;;;;;;4269079;33;20650;-60
2021/04/25 10:00:20;;;;;;;4.97;2.90;;;;;;;;;;4268835;33;20357;-60
2021/04/25 10:03:22;;;;;;;3.08;2.17;;;;;;;;;;4270965;33;20296;-60
2021/04/25 10:06:04;;;;;;;37.80;2.67;;;;;;;;;;4270570;33;20634;-59
2021/04/25 10:08:32;;;;;;;5.07;2.47;;;;;;;;;;4270063;33;20667;-59
2021/04/25 10:11:02;;;;;;;6.68;2.53;;;;;;;;;;4268602;33;20303;-59
2021/04/25 10:13:28;;;;;;;5.25;3.28;;;;;;;;;;4266961;33;20260;-60
2021/04/25 10:15:55;;;;;;;4.68;2.28;;;;;;;;;;4270783;33;20251;-60
2021/04/25 10:18:21;;;;;;;9.73;2.22;;;;;;;;;;4269614;33;20358;-60
2021/04/25 10:20:52;;;;;;;6.00;3.80;;;;;;;;;;4271527;33;20284;-60
2021/04/25 10:23:18;;;;;;;6.32;3.03;;;;;;;;;;4270951;33;20224;-60
2021/04/25 10:25:44;;;;;;;7.75;2.65;;;;;;;;;;4272684;33;20409;-60
2021/04/25 10:28:44;;;;;;;6.18;2.67;;;;;;;;;;4271232;33;20333;-60
2021/04/25 10:31:29;;;;;;;5.15;3.10;;;;;;;;;;4248207;33;20347;-60
2021/04/25 10:34:04;;;;;;;5.72;2.28;;;;;;;;;;4273098;33;20215;-59
2021/04/25 10:36:44;;;;;;;5.03;2.87;;;;;;;;;;4272743;33;20306;-60
2021/04/25 10:39:41;;;;;;;9.75;6.60;;;;;;;;;;4272171;33;20287;-60
2021/04/25 10:42:37;;;;;;;3.20;2.50;;;;;;;;;;4272304;33;20225;-60
2021/04/25 10:47:27;;;;;;;8.95;5.20;;;;;;;;;;4272039;33;20315;-62
2021/04/25 10:49:54;;;;;;;6.05;3.80;;;;;;;;;;4273011;33;20334;-62
2021/04/25 10:52:23;;;;;;;3.08;2.35;;;;;;;;;;4272063;33;20287;-61
2021/04/25 10:55:14;;;;;;;4.65;2.15;;;;;;;;;;4272288;33;20396;-61
2021/04/25 10:58:03;;;;;;;2.95;2.10;;;;;;;;;;4271274;33;20221;-60
2021/04/25 11:03:04;;;;;;;4.93;2.37;;;;;;;;;;4272164;33;20239;-61
2021/04/25 11:05:35;;;;;;;3.05;2.05;;;;;;;;;;4281281;33;20323;-62
2021/04/25 11:08:02;;;;;;;6.37;2.17;;;;;;;;;;4286490;33;20404;-61
2021/04/25 11:10:50;;;;;;;3.72;2.22;;;;;;;;;;4273324;33;20256;-60
2021/04/25 11:13:34;;;;;;;5.65;2.65;;;;;;;;;;4258390;33;20306;-59
2021/04/25 11:16:04;;;;;;;5.45;3.30;;;;;;;;;;4270410;33;20236;-59
2021/04/25 11:19:07;;;;;;;5.70;3.55;;;;;;;;;;4278963;33;20278;-59
2021/04/25 11:24:02;;;;;;;2.83;2.00;;;;;;;;;;4286256;33;20705;-59
2021/04/25 11:26:37;;;;;;;4.93;2.10;;;;;;;;;;4277317;33;20267;-60
2021/04/25 11:29:12;;;;;;;5.43;2.15;;;;;;;;;;4271285;33;20350;-60
2021/04/25 11:31:50;;;;;;;2.75;1.52;;;;;;;;;;4271972;33;20565;-60
2021/04/25 11:34:25;;;;;;;3.87;2.47;;;;;;;;;;4271623;33;20316;-61
2021/04/25 11:37:01;;;;;;;2.80;1.60;;;;;;;;;;4271378;33;20326;-59
2021/04/25 11:39:40;;;;;;;3.37;2.05;;;;;;;;;;4271463;33;20184;-58
2021/04/25 11:42:07;;;;;;;5.90;2.20;;;;;;;;;;4271729;33;20294;-58
2021/04/25 11:44:35;;;;;;;6.15;1.92;;;;;;;;;;4271688;33;20224;-58
2021/04/25 11:47:11;;;;;;;4.53;2.17;;;;;;;;;;4270784;33;20411;-58
2021/04/25 11:49:39;;;;;;;3.95;2.17;;;;;;;;;;4272892;33;20212;-58
2021/04/25 11:52:25;;;;;;;4.72;3.20;;;;;;;;;;4285693;33;20318;-59
2021/04/25 11:55:16;;;;;;;5.25;3.65;;;;;;;;;;4271679;33;20322;-59
2021/04/25 11:57:45;;;;;;;3.70;2.67;;;;;;;;;;4270319;33;20687;-60
2021/04/25 12:00:17;;;;;;;2.78;2.00;;;;;;;;;;4271635;33;20342;-59
2021/04/25 12:02:55;;;;;;;8.65;2.47;;;;;;;;;;4280649;33;20523;-59
2021/04/25 12:05:35;;;;;;;3.90;2.00;;;;;;;;;;4266440;33;20400;-60
2021/04/25 12:08:04;;;;;;;9.45;2.30;;;;;;;;;;4258548;33;20283;-59
2021/04/25 12:10:32;;;;;;;5.65;1.65;;;;;;;;;;4266095;33;20264;-59
2021/04/25 12:13:07;;;;;;;3.85;1.50;;;;;;;;;;4258092;33;20259;-59
2021/04/25 12:16:03;;;;;;;2.70;1.50;;;;;;;;;;4257815;33;20244;-59
2021/04/25 12:18:31;;;;;;;2.33;2.00;;;;;;;;;;4262977;33;20250;-60
2021/04/25 12:21:02;;;;;;;3.90;2.20;;;;;;;;;;4257348;33;20229;-60
2021/04/25 12:23:30;;;;;;;11.63;2.85;;;;;;;;;;4262706;33;20247;-61
2021/04/25 12:25:56;;;;;;;2.40;1.42;;;;;;;;;;4270641;33;20615;-60
2021/04/25 12:28:34;;;;;;;2.97;1.80;;;;;;;;;;4255484;33;20299;-61
2021/04/25 12:31:00;;;;;;;3.90;2.08;;;;;;;;;;4243582;33;20352;-60
2021/04/25 12:33:36;;;;;;;9.63;1.60;;;;;;;;;;4256885;33;20352;-60
2021/04/25 12:36:04;;;;;;;5.87;1.85;;;;;;;;;;4258888;33;20374;-61
2021/04/25 12:38:30;;;;;;;2.90;1.98;;;;;;;;;;4270579;33;20209;-61
2021/04/25 12:41:23;;;;;;;5.62;2.97;;;;;;;;;;4270399;33;20567;-60
2021/04/25 12:43:49;;;;;;;8.50;3.08;;;;;;;;;;4259444;33;20225;-61
2021/04/25 12:46:23;;;;;;;9.52;2.28;;;;;;;;;;4256683;33;20619;-60
2021/04/25 12:48:59;;;;;;;2.40;1.75;;;;;;;;;;4256766;33;20208;-61
2021/04/25 12:51:27;;;;;;;3.12;2.17;;;;;;;;;;4267223;33;20357;-59
2021/04/25 12:53:59;;;;;;;2.47;1.60;;;;;;;;;;4256986;33;20662;-60
2021/04/25 12:56:33;;;;;;;2.83;2.33;;;;;;;;;;4269186;33;20753;-60
2021/04/25 12:59:07;;;;;;;6.45;2.47;;;;;;;;;;4269345;33;20228;-60
2021/04/25 13:01:40;;;;;;;8.25;1.77;;;;;;;;;;4267677;33;20221;-59
2021/04/25 13:04:29;;;;;;;5.68;1.92;;;;;;;;;;4246094;33;20279;-60
2021/04/25 13:07:13;;;;;;;3.78;2.45;;;;;;;;;;4270888;33;20213;-61
2021/04/25 13:09:40;;;;;;;5.80;2.10;;;;;;;;;;4270821;33;20197;-61
2021/04/25 13:12:22;;;;;;;6.62;1.80;;;;;;;;;;4270761;33;20235;-61
2021/04/25 13:17:27;;;;;;;3.20;1.77;;;;;;;;;;4271625;33;20220;-59
2021/04/25 13:19:55;;;;;;;2.67;1.75;;;;;;;;;;4284991;33;20243;-60
2021/04/25 13:22:22;;;;;;;2.92;1.50;;;;;;;;;;4270539;33;20224;-61
2021/04/25 13:24:48;;;;;;;2.95;1.80;;;;;;;;;;4270419;33;20247;-60
2021/04/25 13:27:16;;;;;;;3.53;1.67;;;;;;;;;;4257812;33;20650;-60
2021/04/25 13:29:43;;;;;;;3.83;1.90;;;;;;;;;;4268906;33;20229;-60
2021/04/25 13:32:09;;;;;;;3.67;2.17;;;;;;;;;;4270320;33;20713;-60
2021/04/25 13:34:34;;;;;;;6.55;4.72;;;;;;;;;;4257835;33;20706;-61
2021/04/25 13:37:00;;;;;;;4.00;2.33;;;;;;;;;;4272888;33;20376;-59
2021/04/25 13:39:25;;;;;;;6.57;1.70;;;;;;;;;;4272439;33;20322;-59
2021/04/25 13:41:51;;;;;;;3.85;1.67;;;;;;;;;;4273332;33;20347;-60
2021/04/25 13:44:18;;;;;;;2.35;2.12;;;;;;;;;;4271636;33;20307;-59
2021/04/25 13:46:44;;;;;;;3.28;1.95;;;;;;;;;;4273393;33;20709;-60
2021/04/25 13:49:10;;;;;;;4.65;2.58;;;;;;;;;;4273575;33;20595;-59
2021/04/25 13:51:38;;;;;;;4.37;2.45;;;;;;;;;;4273985;33;20228;-59
2021/04/25 13:54:05;;;;;;;3.05;2.28;;;;;;;;;;4260229;33;20248;-60
2021/04/25 13:56:31;;;;;;;7.75;4.35;;;;;;;;;;4272420;33;20358;-59
2021/04/25 13:58:57;;;;;;;3.97;1.83;;;;;;;;;;4273227;33;20689;-60
2021/04/25 14:01:24;;;;;;;4.43;3.50;;;;;;;;;;4271736;33;20287;-60
2021/04/25 14:03:49;;;;;;;5.37;2.70;;;;;;;;;;4273109;33;20250;-59
2021/04/25 14:06:15;;;;;;;3.95;1.83;;;;;;;;;;4279272;33;20655;-59
2021/04/25 14:08:41;;;;;;;4.55;2.42;;;;;;;;;;4271656;33;20639;-60
2021/04/25 14:11:09;;;;;;;4.47;2.62;;;;;;;;;;4272617;33;20352;-60
2021/04/25 14:13:35;;;;;;;5.35;2.87;;;;;;;;;;4271854;33;20566;-60
2021/04/25 14:16:01;;;;;;;8.68;3.00;;;;;;;;;;4273000;33;20287;-59
2021/04/25 14:18:28;;;;;;;4.03;2.20;;;;;;;;;;4264648;33;20455;-60
2021/04/25 14:20:54;;;;;;;5.30;2.42;;;;;;;;;;4272551;33;20220;-60
2021/04/25 14:23:19;;;;;;;5.37;2.45;;;;;;;;;;4274288;33;20243;-57
2021/04/25 14:25:47;;;;;;;7.60;2.60;;;;;;;;;;4274101;33;20788;-59
2021/04/25 14:28:13;;;;;;;4.45;1.75;;;;;;;;;;4275969;33;20213;-59
2021/04/25 14:30:39;;;;;;;4.28;2.47;;;;;;;;;;4270359;33;20334;-59
2021/04/25 14:33:04;;;;;;;4.07;2.17;;;;;;;;;;4267607;33;20376;-60
2021/04/25 14:35:30;;;;;;;3.70;2.10;;;;;;;;;;4269904;33;20691;-60
2021/04/25 14:37:57;;;;;;;4.05;2.05;;;;;;;;;;4269336;33;20245;-59
2021/04/25 14:40:25;;;;;;;5.82;2.75;;;;;;;;;;4270579;33;20646;-61
2021/04/25 14:42:51;;;;;;;4.37;2.20;;;;;;;;;;4268962;33;20303;-61
2021/04/25 14:45:19;;;;;;;7.07;2.17;;;;;;;;;;4270917;33;20283;-60